Postelle, Tennessee
Current Conditions -  °F | °C
As of 6:35 AM on Friday 31 Oct 2014 (Local Time) from KRZR Reporting Station
Broken Clouds Broken Clouds  
Wind Chill: 39°   Ceiling: 11000
Heat Index: 39°   Visibility: 10mi
Dew Point: 37°   Wind: 0mph
Humidity: 93%   Direction: NA
Pressure: 29.97"   Gusts: NA
Location:  35.0531°N, 84.3953°W
Report Text: KRZR 311035Z AUTO 00000KT 10SM BKN110 04/03 A2997 RMK
Loading
Personal Weather Stations






























Interactive Weather Map
Tropical Storm Tracking
New forecast layout! Learn more

10-Day Weather Forecast

Advertisements
Track Severe Weather on mobile